Time;durP1;ratioP1;P1;durP2;ratioP2;P2;SDS_P1;SDS_P2;PMS_P1;PMS_P2;Temp;Humidity;BMP_temperature;BMP_pressure;BME280_temperature;BME280_humidity;BME280_pressure;Samples;Min_cycle;Max_cycle;Signal;HPM_P1;HPM_P2
2023/01/25 00:02:04;;;;;;;4.88;4.40;;;;;;;;;;5119532;28;20309;-62
2023/01/25 00:04:32;;;;;;;4.75;4.35;;;;;;;;;;5119311;28;20276;-61
2023/01/25 00:07:01;;;;;;;4.70;4.20;;;;;;;;;;5119144;28;20199;-61
2023/01/25 00:09:29;;;;;;;4.85;4.38;;;;;;;;;;5119041;28;20590;-62
2023/01/25 00:11:57;;;;;;;4.65;4.25;;;;;;;;;;5118997;28;20199;-62
2023/01/25 00:14:26;;;;;;;4.80;4.30;;;;;;;;;;5103222;28;20583;-63
2023/01/25 00:16:53;;;;;;;4.53;4.13;;;;;;;;;;5110652;28;20665;-62
2023/01/25 00:19:21;;;;;;;4.85;4.35;;;;;;;;;;5098504;28;20204;-62
2023/01/25 00:21:48;;;;;;;4.63;4.22;;;;;;;;;;5113944;28;20210;-62
2023/01/25 00:24:18;;;;;;;4.45;4.05;;;;;;;;;;5119153;28;20230;-62
2023/01/25 00:26:46;;;;;;;4.50;4.10;;;;;;;;;;5119101;28;20268;-62
2023/01/25 00:29:14;;;;;;;4.78;4.28;;;;;;;;;;5118680;28;20203;-62
2023/01/25 00:31:46;;;;;;;5.22;4.72;;;;;;;;;;5119323;28;20222;-62
2023/01/25 00:34:40;;;;;;;5.20;4.70;;;;;;;;;;5101257;28;20200;-62
2023/01/25 00:37:13;;;;;;;4.78;4.30;;;;;;;;;;5098146;28;20203;-62
2023/01/25 00:39:42;;;;;;;4.95;4.45;;;;;;;;;;5098064;28;20204;-62
2023/01/25 00:42:11;;;;;;;5.13;4.63;;;;;;;;;;5098243;28;20204;-62
2023/01/25 00:44:39;;;;;;;4.95;4.55;;;;;;;;;;5098559;28;20218;-62
2023/01/25 00:47:06;;;;;;;5.20;4.70;;;;;;;;;;5098357;28;20616;-62
2023/01/25 00:49:34;;;;;;;4.70;4.30;;;;;;;;;;5098862;28;20572;-62
2023/01/25 00:52:02;;;;;;;5.47;4.97;;;;;;;;;;5118837;28;20199;-62
2023/01/25 00:54:30;;;;;;;5.05;4.47;;;;;;;;;;5118820;28;20206;-63
2023/01/25 00:56:59;;;;;;;5.15;4.65;;;;;;;;;;5117948;28;20195;-62
2023/01/25 00:59:27;;;;;;;5.57;4.82;;;;;;;;;;5118029;28;20199;-62
2023/01/25 01:01:55;;;;;;;5.00;4.50;;;;;;;;;;5118054;28;20309;-62
2023/01/25 01:04:24;;;;;;;5.15;4.65;;;;;;;;;;5118848;28;20522;-61
2023/01/25 01:06:52;;;;;;;5.50;4.97;;;;;;;;;;5118716;28;20222;-62
2023/01/25 01:09:20;;;;;;;5.45;4.93;;;;;;;;;;5117723;28;20199;-62
2023/01/25 01:11:48;;;;;;;5.55;4.88;;;;;;;;;;5117750;28;20546;-62
2023/01/25 01:14:17;;;;;;;5.70;4.90;;;;;;;;;;5117552;28;20230;-64
2023/01/25 01:16:45;;;;;;;5.18;4.68;;;;;;;;;;5117494;28;20203;-63
2023/01/25 01:19:13;;;;;;;5.30;4.80;;;;;;;;;;5117248;28;20198;-62
2023/01/25 01:21:42;;;;;;;5.85;5.30;;;;;;;;;;5117003;28;20223;-62
2023/01/25 01:24:10;;;;;;;5.38;4.88;;;;;;;;;;5118216;28;20206;-62
2023/01/25 01:26:38;;;;;;;5.45;4.68;;;;;;;;;;5118136;28;20238;-63
2023/01/25 01:29:06;;;;;;;5.57;4.95;;;;;;;;;;5117360;28;20195;-63
2023/01/25 01:31:35;;;;;;;5.07;4.57;;;;;;;;;;5117790;28;20198;-62
2023/01/25 01:34:02;;;;;;;5.68;5.07;;;;;;;;;;5118069;28;20536;-62
2023/01/25 01:36:31;;;;;;;5.55;5.00;;;;;;;;;;5117725;28;20195;-62
2023/01/25 01:38:59;;;;;;;5.15;4.65;;;;;;;;;;5117602;28;20199;-62
2023/01/25 01:41:27;;;;;;;5.40;4.90;;;;;;;;;;5117296;28;20313;-62
2023/01/25 01:43:54;;;;;;;5.20;4.70;;;;;;;;;;5117412;28;20520;-63
2023/01/25 01:46:24;;;;;;;5.50;5.00;;;;;;;;;;5118101;28;20625;-62
2023/01/25 01:48:55;;;;;;;5.30;4.80;;;;;;;;;;5117632;28;20268;-62
2023/01/25 01:51:25;;;;;;;5.55;5.05;;;;;;;;;;5118108;28;20210;-62
2023/01/25 01:53:56;;;;;;;5.65;5.07;;;;;;;;;;5117356;28;20252;-62
2023/01/25 01:56:29;;;;;;;5.25;4.75;;;;;;;;;;5117644;28;20574;-62
2023/01/25 01:58:59;;;;;;;5.47;4.97;;;;;;;;;;5117879;28;20206;-62
2023/01/25 02:01:27;;;;;;;5.47;4.93;;;;;;;;;;5117867;28;20223;-62
2023/01/25 02:03:56;;;;;;;5.38;4.88;;;;;;;;;;5117417;28;20272;-62
2023/01/25 02:06:35;;;;;;;5.32;4.82;;;;;;;;;;5117932;28;20259;-62
2023/01/25 02:09:03;;;;;;;5.72;5.10;;;;;;;;;;5118035;28;20476;-62
2023/01/25 02:11:31;;;;;;;5.30;4.80;;;;;;;;;;5104035;28;20583;-62
2023/01/25 02:14:00;;;;;;;6.38;5.03;;;;;;;;;;5097705;28;20207;-62
2023/01/25 02:16:29;;;;;;;5.45;4.95;;;;;;;;;;5096944;28;20212;-62
2023/01/25 02:19:00;;;;;;;6.03;5.10;;;;;;;;;;5097363;28;20204;-61
2023/01/25 02:21:30;;;;;;;5.55;4.97;;;;;;;;;;5096308;28;20228;-62
2023/01/25 02:23:59;;;;;;;5.40;4.90;;;;;;;;;;5110106;28;20570;-62
2023/01/25 02:26:28;;;;;;;5.05;4.60;;;;;;;;;;5097374;28;20264;-62
2023/01/25 02:28:59;;;;;;;5.68;4.88;;;;;;;;;;5097662;28;20234;-61
2023/01/25 02:31:27;;;;;;;5.40;4.90;;;;;;;;;;5101136;28;20215;-63
2023/01/25 02:33:55;;;;;;;5.43;4.63;;;;;;;;;;5100473;28;20622;-63
2023/01/25 02:36:25;;;;;;;5.03;4.53;;;;;;;;;;5100882;28;20587;-62
2023/01/25 02:38:55;;;;;;;5.43;4.93;;;;;;;;;;5099125;28;20214;-62
2023/01/25 02:41:25;;;;;;;5.07;4.55;;;;;;;;;;5084841;28;20227;-62
2023/01/25 02:43:55;;;;;;;5.20;4.63;;;;;;;;;;5099771;28;20246;-63
2023/01/25 02:46:26;;;;;;;5.13;4.63;;;;;;;;;;5094542;28;20206;-62
2023/01/25 02:48:55;;;;;;;5.45;4.65;;;;;;;;;;5100569;28;20303;-62
2023/01/25 02:51:23;;;;;;;4.95;4.45;;;;;;;;;;5099512;28;20226;-62
2023/01/25 02:53:51;;;;;;;5.93;4.85;;;;;;;;;;5100136;28;20203;-62
2023/01/25 02:56:19;;;;;;;4.85;4.35;;;;;;;;;;5099597;28;20300;-62
2023/01/25 02:58:47;;;;;;;5.25;4.70;;;;;;;;;;5100283;28;20795;-62
2023/01/25 03:01:16;;;;;;;5.03;4.55;;;;;;;;;;5099780;28;20314;-62
2023/01/25 03:03:44;;;;;;;5.38;4.88;;;;;;;;;;5100202;28;20207;-62
2023/01/25 03:06:12;;;;;;;5.15;4.70;;;;;;;;;;5099654;28;20599;-62
2023/01/25 03:08:39;;;;;;;4.90;4.40;;;;;;;;;;5100245;28;20502;-62
2023/01/25 03:11:08;;;;;;;5.13;4.63;;;;;;;;;;5099550;28;20196;-62
2023/01/25 03:13:36;;;;;;;5.35;4.75;;;;;;;;;;5099107;28;20269;-62
2023/01/25 03:16:04;;;;;;;5.28;4.78;;;;;;;;;;5082601;28;20204;-62
2023/01/25 03:18:33;;;;;;;5.43;4.93;;;;;;;;;;5098788;28;20204;-62
2023/01/25 03:21:08;;;;;;;5.18;4.68;;;;;;;;;;5084595;28;20631;-62
2023/01/25 03:23:36;;;;;;;5.43;4.93;;;;;;;;;;5079679;28;20211;-62
2023/01/25 03:26:08;;;;;;;5.68;4.60;;;;;;;;;;5096243;28;20206;-61
2023/01/25 03:28:36;;;;;;;5.20;4.47;;;;;;;;;;5084292;28;20196;-62
2023/01/25 03:31:03;;;;;;;5.18;4.57;;;;;;;;;;5099999;28;20649;-62
2023/01/25 03:33:33;;;;;;;5.15;4.50;;;;;;;;;;5099381;28;20218;-62
2023/01/25 03:36:01;;;;;;;4.65;4.20;;;;;;;;;;5083195;28;20211;-61
2023/01/25 03:38:29;;;;;;;5.25;4.75;;;;;;;;;;5096247;28;20287;-61
2023/01/25 03:40:57;;;;;;;4.68;4.25;;;;;;;;;;5079066;28;20288;-62
2023/01/25 03:43:25;;;;;;;5.18;4.68;;;;;;;;;;5097994;28;20286;-62
2023/01/25 03:45:53;;;;;;;4.85;4.40;;;;;;;;;;5099793;28;20210;-62
2023/01/25 03:48:21;;;;;;;5.35;4.85;;;;;;;;;;5098975;28;20207;-61
2023/01/25 03:50:54;;;;;;;4.85;4.45;;;;;;;;;;5096453;28;20192;-62
2023/01/25 03:53:29;;;;;;;5.45;4.90;;;;;;;;;;5079225;28;20201;-62
2023/01/25 03:55:57;;;;;;;5.07;4.57;;;;;;;;;;5094099;28;20231;-62
2023/01/25 03:58:25;;;;;;;4.95;4.55;;;;;;;;;;5094335;28;20295;-62
2023/01/25 04:00:55;;;;;;;5.22;4.72;;;;;;;;;;5078992;28;20264;-62
2023/01/25 04:03:24;;;;;;;4.57;4.18;;;;;;;;;;5083466;28;20215;-62
2023/01/25 04:05:53;;;;;;;5.05;4.55;;;;;;;;;;5093445;28;20207;-62
2023/01/25 04:08:21;;;;;;;4.97;4.55;;;;;;;;;;5091630;28;20307;-62
2023/01/25 04:10:52;;;;;;;5.07;4.57;;;;;;;;;;5099059;28;20539;-62
2023/01/25 04:13:20;;;;;;;5.05;4.55;;;;;;;;;;5078173;28;20205;-62
2023/01/25 04:15:48;;;;;;;5.30;4.80;;;;;;;;;;5078393;28;20205;-62
2023/01/25 04:18:16;;;;;;;5.60;5.00;;;;;;;;;;5078896;28;20226;-62
2023/01/25 04:20:44;;;;;;;5.10;4.60;;;;;;;;;;5077724;28;20208;-62
2023/01/25 04:23:13;;;;;;;4.90;4.40;;;;;;;;;;5078573;28;20227;-62
2023/01/25 04:25:41;;;;;;;4.80;4.40;;;;;;;;;;5098418;28;20235;-61
2023/01/25 04:28:09;;;;;;;4.78;4.38;;;;;;;;;;5098268;28;20210;-63
2023/01/25 04:30:36;;;;;;;5.28;4.78;;;;;;;;;;5098200;28;20243;-62
2023/01/25 04:33:05;;;;;;;4.97;4.47;;;;;;;;;;5098336;28;20207;-62
2023/01/25 04:35:33;;;;;;;4.80;4.30;;;;;;;;;;5098138;28;20209;-63
2023/01/25 04:38:02;;;;;;;4.93;4.50;;;;;;;;;;5098009;28;20204;-62
2023/01/25 04:40:31;;;;;;;5.15;4.53;;;;;;;;;;5093342;28;20507;-62
2023/01/25 04:42:59;;;;;;;4.95;4.45;;;;;;;;;;5085045;28;20265;-62
2023/01/25 04:45:26;;;;;;;5.20;4.70;;;;;;;;;;5092534;28;20200;-62
2023/01/25 04:47:57;;;;;;;5.38;4.75;;;;;;;;;;5097054;28;20260;-62
2023/01/25 04:50:24;;;;;;;4.75;4.20;;;;;;;;;;5080609;28;20639;-62
2023/01/25 04:52:52;;;;;;;5.10;4.55;;;;;;;;;;5095482;28;20215;-63
2023/01/25 04:55:20;;;;;;;4.55;4.15;;;;;;;;;;5097081;28;20295;-62
2023/01/25 04:57:51;;;;;;;4.47;3.90;;;;;;;;;;5096985;28;20588;-61
2023/01/25 05:00:19;;;;;;;5.03;4.57;;;;;;;;;;5097335;28;20592;-62
2023/01/25 05:02:47;;;;;;;4.57;4.18;;;;;;;;;;5097844;28;20239;-62
2023/01/25 05:05:15;;;;;;;4.32;3.92;;;;;;;;;;5097222;28;20283;-63
2023/01/25 05:07:42;;;;;;;4.65;4.25;;;;;;;;;;5092501;28;20242;-62
2023/01/25 05:10:11;;;;;;;4.45;4.05;;;;;;;;;;5087597;28;20208;-61
2023/01/25 05:12:38;;;;;;;4.95;4.45;;;;;;;;;;5090608;28;20203;-61
2023/01/25 05:15:09;;;;;;;4.97;4.47;;;;;;;;;;5095462;28;20231;-62
2023/01/25 05:17:36;;;;;;;5.03;4.35;;;;;;;;;;5077491;28;20204;-61
2023/01/25 05:20:04;;;;;;;4.85;4.35;;;;;;;;;;5094603;28;20200;-62
2023/01/25 05:22:32;;;;;;;4.43;4.03;;;;;;;;;;5092440;28;20286;-62
2023/01/25 05:25:00;;;;;;;4.15;3.78;;;;;;;;;;5078453;28;20205;-62
2023/01/25 05:27:27;;;;;;;4.60;4.20;;;;;;;;;;5096673;28;20546;-62
2023/01/25 05:29:55;;;;;;;4.63;4.22;;;;;;;;;;5088317;28;20305;-62
2023/01/25 05:32:24;;;;;;;4.30;3.90;;;;;;;;;;5096361;28;20206;-62
2023/01/25 05:34:52;;;;;;;4.60;4.20;;;;;;;;;;5096975;28;20469;-62
2023/01/25 05:37:21;;;;;;;4.85;4.45;;;;;;;;;;5096990;28;20214;-62
2023/01/25 05:39:48;;;;;;;4.70;4.20;;;;;;;;;;5096020;28;20222;-62
2023/01/25 05:42:17;;;;;;;4.30;3.90;;;;;;;;;;5096047;28;20227;-62
2023/01/25 05:44:45;;;;;;;4.72;4.20;;;;;;;;;;5096438;28;20265;-62
2023/01/25 05:47:14;;;;;;;4.45;4.05;;;;;;;;;;5095708;28;20200;-62
2023/01/25 05:49:43;;;;;;;4.57;4.15;;;;;;;;;;5096040;28;20196;-61
2023/01/25 05:52:13;;;;;;;4.75;4.35;;;;;;;;;;5095707;28;20740;-62
2023/01/25 05:54:41;;;;;;;4.80;4.40;;;;;;;;;;5093108;28;20206;-63
2023/01/25 05:57:09;;;;;;;4.63;4.22;;;;;;;;;;5094492;28;20534;-62
2023/01/25 05:59:37;;;;;;;4.32;3.92;;;;;;;;;;5095251;28;20214;-63
2023/01/25 06:02:05;;;;;;;4.40;4.00;;;;;;;;;;5095028;28;20227;-62
2023/01/25 06:04:32;;;;;;;4.47;4.05;;;;;;;;;;5098579;28;20200;-62
2023/01/25 06:07:02;;;;;;;4.68;4.22;;;;;;;;;;5098452;28;20211;-63
2023/01/25 06:09:29;;;;;;;4.68;4.20;;;;;;;;;;5099079;28;20210;-63
2023/01/25 06:11:57;;;;;;;4.30;3.90;;;;;;;;;;5096573;28;20260;-63
2023/01/25 06:14:25;;;;;;;4.65;4.25;;;;;;;;;;5098368;28;20215;-63
2023/01/25 06:16:52;;;;;;;4.97;4.38;;;;;;;;;;5098594;28;20591;-63
2023/01/25 06:19:20;;;;;;;4.57;4.18;;;;;;;;;;5098689;28;20653;-63
2023/01/25 06:21:48;;;;;;;4.20;3.80;;;;;;;;;;5098691;28;20223;-62
2023/01/25 06:24:17;;;;;;;4.35;3.92;;;;;;;;;;5094375;28;20467;-62
2023/01/25 06:26:44;;;;;;;4.40;4.00;;;;;;;;;;5098166;28;20697;-63
2023/01/25 06:29:12;;;;;;;4.32;3.92;;;;;;;;;;5097992;28;20702;-63
2023/01/25 06:31:40;;;;;;;4.55;4.15;;;;;;;;;;5098297;28;20211;-62
2023/01/25 06:34:08;;;;;;;5.00;4.03;;;;;;;;;;5098016;28;20690;-62
2023/01/25 06:36:36;;;;;;;4.88;3.47;;;;;;;;;;5098042;28;20249;-62
2023/01/25 06:39:04;;;;;;;4.38;3.97;;;;;;;;;;5092645;28;20491;-62
2023/01/25 06:41:33;;;;;;;4.25;3.85;;;;;;;;;;5098001;28;20196;-62
2023/01/25 06:44:01;;;;;;;4.13;3.75;;;;;;;;;;5097586;28;20235;-63
2023/01/25 06:46:28;;;;;;;4.60;4.20;;;;;;;;;;5097590;28;20199;-63
2023/01/25 06:48:56;;;;;;;4.40;4.00;;;;;;;;;;5097372;28;20494;-63
2023/01/25 06:51:24;;;;;;;4.13;3.80;;;;;;;;;;5096441;28;20196;-62
2023/01/25 06:53:51;;;;;;;4.63;4.18;;;;;;;;;;5096618;28;20684;-63
2023/01/25 06:56:20;;;;;;;6.03;4.13;;;;;;;;;;5096869;28;20199;-62
2023/01/25 06:58:49;;;;;;;4.45;3.55;;;;;;;;;;5095978;28;20210;-62
2023/01/25 07:01:18;;;;;;;4.10;3.70;;;;;;;;;;5097492;28;20684;-62
2023/01/25 07:03:48;;;;;;;4.20;3.75;;;;;;;;;;5097957;28;20227;-63
2023/01/25 07:06:16;;;;;;;4.15;3.75;;;;;;;;;;5097294;28;20233;-63
2023/01/25 07:08:44;;;;;;;4.68;4.18;;;;;;;;;;5097621;28;20196;-63
2023/01/25 07:11:13;;;;;;;4.28;3.88;;;;;;;;;;5096747;28;20669;-62
2023/01/25 07:13:41;;;;;;;4.00;3.60;;;;;;;;;;5097665;28;20228;-62
2023/01/25 07:16:12;;;;;;;4.40;4.00;;;;;;;;;;5097511;28;20328;-62
2023/01/25 07:18:41;;;;;;;4.30;3.90;;;;;;;;;;5088767;28;20204;-62
2023/01/25 07:21:09;;;;;;;4.60;4.13;;;;;;;;;;5097453;28;20518;-63
2023/01/25 07:23:37;;;;;;;7.75;4.82;;;;;;;;;;5097632;28;20223;-63
2023/01/25 07:26:06;;;;;;;4.32;3.70;;;;;;;;;;5097080;28;20315;-63
2023/01/25 07:28:34;;;;;;;5.68;4.05;;;;;;;;;;5097430;28;20222;-63
2023/01/25 07:31:06;;;;;;;4.90;4.18;;;;;;;;;;5096099;28;20830;-63
2023/01/25 07:33:35;;;;;;;5.15;4.32;;;;;;;;;;5097722;28;20200;-63
2023/01/25 07:36:03;;;;;;;5.63;4.38;;;;;;;;;;5097466;28;20200;-62
2023/01/25 07:38:30;;;;;;;5.72;4.50;;;;;;;;;;5097294;28;20207;-63
2023/01/25 07:40:58;;;;;;;4.97;4.10;;;;;;;;;;5098091;28;20433;-62
2023/01/25 07:43:26;;;;;;;4.50;4.10;;;;;;;;;;5097262;28;20243;-63
2023/01/25 07:45:54;;;;;;;4.43;3.80;;;;;;;;;;5097601;28;20583;-63
2023/01/25 07:48:21;;;;;;;5.68;4.30;;;;;;;;;;5096981;28;20634;-63
2023/01/25 07:51:10;;;;;;;6.03;4.28;;;;;;;;;;5095694;28;20210;-63
2023/01/25 07:53:38;;;;;;;4.68;3.90;;;;;;;;;;5096709;28;20257;-63
2023/01/25 07:56:06;;;;;;;5.18;4.20;;;;;;;;;;5096800;28;20203;-63
2023/01/25 07:58:35;;;;;;;5.55;4.10;;;;;;;;;;5097191;28;20195;-63
2023/01/25 08:01:08;;;;;;;5.43;3.90;;;;;;;;;;5095478;28;20200;-62
2023/01/25 08:03:36;;;;;;;4.93;4.30;;;;;;;;;;5095988;28;20220;-63
2023/01/25 08:06:06;;;;;;;4.75;4.20;;;;;;;;;;5096557;28;20235;-62
2023/01/25 08:08:34;;;;;;;5.10;4.20;;;;;;;;;;5097716;28;20556;-63
2023/01/25 08:11:02;;;;;;;5.80;4.28;;;;;;;;;;5097216;28;20220;-62
2023/01/25 08:13:29;;;;;;;4.68;4.28;;;;;;;;;;5096733;28;20200;-62
2023/01/25 08:15:57;;;;;;;5.07;4.43;;;;;;;;;;5096083;28;20213;-63
2023/01/25 08:18:25;;;;;;;5.55;4.18;;;;;;;;;;5096539;28;20207;-63
2023/01/25 08:20:53;;;;;;;4.70;4.18;;;;;;;;;;5096177;28;20196;-63
2023/01/25 08:23:23;;;;;;;4.88;4.00;;;;;;;;;;5096710;28;20318;-63
2023/01/25 08:25:51;;;;;;;5.65;4.28;;;;;;;;;;5096211;28;20239;-63
2023/01/25 08:28:18;;;;;;;4.35;3.75;;;;;;;;;;5097084;28;20187;-63
2023/01/25 08:30:46;;;;;;;5.38;4.47;;;;;;;;;;5095189;28;20240;-62
2023/01/25 08:33:14;;;;;;;6.03;4.20;;;;;;;;;;5085329;28;20219;-63
2023/01/25 08:35:42;;;;;;;4.63;3.97;;;;;;;;;;5096887;28;20613;-63
2023/01/25 08:38:09;;;;;;;4.70;4.20;;;;;;;;;;5090004;28;20204;-63
2023/01/25 08:40:38;;;;;;;5.40;4.20;;;;;;;;;;5085083;28;20235;-62
2023/01/25 08:43:06;;;;;;;4.82;4.18;;;;;;;;;;5093951;28;20223;-63
2023/01/25 08:45:35;;;;;;;5.10;4.60;;;;;;;;;;5076115;28;20474;-63
2023/01/25 08:48:03;;;;;;;5.45;4.78;;;;;;;;;;5086976;28;20672;-62
2023/01/25 08:50:31;;;;;;;5.07;4.00;;;;;;;;;;5094947;28;20270;-64
2023/01/25 08:52:59;;;;;;;4.70;4.20;;;;;;;;;;5077329;28;20479;-62
2023/01/25 08:55:26;;;;;;;5.60;4.57;;;;;;;;;;5096637;28;20306;-63
2023/01/25 08:57:56;;;;;;;4.35;3.90;;;;;;;;;;5096388;28;20214;-62
2023/01/25 09:00:24;;;;;;;5.32;4.45;;;;;;;;;;5087030;28;20484;-63
2023/01/25 09:02:51;;;;;;;4.93;4.43;;;;;;;;;;5094479;28;20606;-63
2023/01/25 09:05:19;;;;;;;5.93;4.50;;;;;;;;;;5081060;28;20594;-63
2023/01/25 09:07:47;;;;;;;4.72;4.20;;;;;;;;;;5096139;28;20719;-63
2023/01/25 09:10:14;;;;;;;5.28;4.70;;;;;;;;;;5085325;28;20239;-63
2023/01/25 09:12:42;;;;;;;4.68;4.28;;;;;;;;;;5094885;28;20203;-62
2023/01/25 09:15:11;;;;;;;5.35;4.80;;;;;;;;;;5077939;28;20200;-62
2023/01/25 09:17:39;;;;;;;5.00;4.25;;;;;;;;;;5077422;28;20193;-62
2023/01/25 09:20:07;;;;;;;5.60;4.60;;;;;;;;;;5094702;28;20200;-62
2023/01/25 09:22:35;;;;;;;5.00;4.35;;;;;;;;;;5094697;28;20220;-63
2023/01/25 09:25:03;;;;;;;5.28;4.65;;;;;;;;;;5094946;28;20208;-62
2023/01/25 09:27:31;;;;;;;5.95;5.07;;;;;;;;;;5095292;28;20214;-62
2023/01/25 09:29:58;;;;;;;5.95;4.82;;;;;;;;;;5094647;28;20647;-62
2023/01/25 09:32:27;;;;;;;5.20;4.70;;;;;;;;;;5094757;28;20192;-63
2023/01/25 09:34:55;;;;;;;6.45;5.18;;;;;;;;;;5094292;28;20631;-62
2023/01/25 09:37:23;;;;;;;5.30;4.20;;;;;;;;;;5093234;28;20202;-62
2023/01/25 09:39:50;;;;;;;5.22;4.40;;;;;;;;;;5094258;28;20230;-62
2023/01/25 09:42:26;;;;;;;5.38;4.32;;;;;;;;;;5095268;28;20203;-62
2023/01/25 09:45:01;;;;;;;5.45;4.50;;;;;;;;;;5094913;28;20196;-62
2023/01/25 09:47:35;;;;;;;5.65;4.68;;;;;;;;;;5094837;28;20210;-62
2023/01/25 09:50:14;;;;;;;4.80;4.30;;;;;;;;;;5094573;28;20229;-62
2023/01/25 09:52:55;;;;;;;5.15;4.65;;;;;;;;;;5095321;28;20260;-64
2023/01/25 09:55:25;;;;;;;6.05;5.30;;;;;;;;;;5094540;28;20199;-63
2023/01/25 09:57:55;;;;;;;5.13;4.32;;;;;;;;;;5094568;28;20275;-62
2023/01/25 10:00:25;;;;;;;4.90;4.40;;;;;;;;;;5095339;28;20262;-61
2023/01/25 10:02:56;;;;;;;5.45;4.65;;;;;;;;;;5094998;28;20241;-62
2023/01/25 10:05:27;;;;;;;4.95;4.32;;;;;;;;;;5095081;28;20204;-62
2023/01/25 10:07:58;;;;;;;5.00;4.20;;;;;;;;;;5093684;28;20513;-61
2023/01/25 10:10:31;;;;;;;6.18;4.50;;;;;;;;;;5094919;28;20196;-61
2023/01/25 10:12:59;;;;;;;4.70;4.20;;;;;;;;;;5094459;28;20196;-61
2023/01/25 10:15:31;;;;;;;5.60;4.75;;;;;;;;;;5094660;28;20298;-61
2023/01/25 10:18:03;;;;;;;5.30;4.80;;;;;;;;;;5094615;28;20239;-62
2023/01/25 10:20:35;;;;;;;5.30;4.55;;;;;;;;;;5074094;28;20295;-62
2023/01/25 10:23:23;;;;;;;5.43;4.78;;;;;;;;;;5084497;28;20604;-61
2023/01/25 10:25:55;;;;;;;5.45;4.38;;;;;;;;;;5093680;28;20782;-61
2023/01/25 10:28:27;;;;;;;4.53;3.95;;;;;;;;;;5093561;28;20249;-61
2023/01/25 10:30:57;;;;;;;5.40;4.72;;;;;;;;;;5093722;28;20231;-62
2023/01/25 10:33:28;;;;;;;4.85;4.20;;;;;;;;;;5093815;28;20196;-62
2023/01/25 10:35:57;;;;;;;4.90;4.20;;;;;;;;;;5095157;28;20576;-62
2023/01/25 10:38:28;;;;;;;5.40;4.90;;;;;;;;;;5094191;28;20195;-62
2023/01/25 10:40:58;;;;;;;4.80;4.28;;;;;;;;;;5090401;28;20602;-62
2023/01/25 10:43:25;;;;;;;4.25;3.85;;;;;;;;;;5077507;28;20235;-62
2023/01/25 10:45:53;;;;;;;4.95;4.30;;;;;;;;;;5095179;28;20203;-62
2023/01/25 10:48:22;;;;;;;4.45;4.05;;;;;;;;;;5093585;28;20221;-61
2023/01/25 10:50:53;;;;;;;4.80;4.25;;;;;;;;;;5095890;28;20763;-61
2023/01/25 10:53:25;;;;;;;4.28;3.88;;;;;;;;;;5096639;28;20199;-62
2023/01/25 10:56:07;;;;;;;4.75;4.25;;;;;;;;;;5098305;28;20207;-62
2023/01/25 10:58:36;;;;;;;4.97;4.28;;;;;;;;;;5083169;28;20199;-62
2023/01/25 11:01:06;;;;;;;4.65;3.92;;;;;;;;;;5098071;28;20211;-61
2023/01/25 11:03:38;;;;;;;4.20;3.80;;;;;;;;;;5097316;28;20558;-61
2023/01/25 11:06:08;;;;;;;4.55;4.15;;;;;;;;;;5097206;28;20207;-61
2023/01/25 11:08:37;;;;;;;5.03;4.47;;;;;;;;;;5096303;28;20261;-62
2023/01/25 11:11:24;;;;;;;4.80;4.25;;;;;;;;;;5097825;28;20564;-61
2023/01/25 11:13:53;;;;;;;4.93;4.13;;;;;;;;;;5097089;28;20195;-61
2023/01/25 11:16:31;;;;;;;4.38;3.97;;;;;;;;;;5097639;28;20227;-61
2023/01/25 11:19:01;;;;;;;4.70;4.07;;;;;;;;;;5097362;28;20211;-61
2023/01/25 11:21:31;;;;;;;4.13;3.72;;;;;;;;;;5096962;28;20210;-62
2023/01/25 11:24:03;;;;;;;4.50;4.10;;;;;;;;;;5095467;28;20298;-62
2023/01/25 11:26:31;;;;;;;4.20;3.80;;;;;;;;;;5095404;28;20203;-61
2023/01/25 11:29:09;;;;;;;4.82;4.32;;;;;;;;;;5095261;28;20203;-61
2023/01/25 11:31:36;;;;;;;4.20;3.80;;;;;;;;;;5074532;28;20204;-61
2023/01/25 11:34:09;;;;;;;4.20;3.67;;;;;;;;;;5074985;28;20196;-62
2023/01/25 11:36:42;;;;;;;3.75;3.33;;;;;;;;;;5074667;28;20491;-62
2023/01/25 11:39:25;;;;;;;3.78;3.40;;;;;;;;;;5075166;28;20446;-62
2023/01/25 11:41:57;;;;;;;4.60;4.20;;;;;;;;;;5070121;28;20204;-61
2023/01/25 11:44:43;;;;;;;4.18;3.78;;;;;;;;;;5074093;28;20232;-62
2023/01/25 11:47:17;;;;;;;4.50;3.70;;;;;;;;;;5069494;28;20216;-62
2023/01/25 11:49:51;;;;;;;3.97;3.58;;;;;;;;;;5072519;28;20576;-62
2023/01/25 11:52:26;;;;;;;4.28;3.88;;;;;;;;;;5073224;28;20204;-62
2023/01/25 11:54:58;;;;;;;4.22;3.67;;;;;;;;;;5074674;28;20307;-62
2023/01/25 11:57:33;;;;;;;4.65;3.97;;;;;;;;;;5074851;28;20324;-61
2023/01/25 12:00:18;;;;;;;3.55;3.20;;;;;;;;;;5074129;28;20204;-61
2023/01/25 12:03:04;;;;;;;4.35;3.95;;;;;;;;;;5073515;28;20214;-62
2023/01/25 12:05:49;;;;;;;4.10;3.70;;;;;;;;;;5057623;28;20445;-62
2023/01/25 12:08:24;;;;;;;3.78;3.42;;;;;;;;;;5074237;28;20223;-61
2023/01/25 12:10:55;;;;;;;4.18;3.58;;;;;;;;;;5073868;28;20591;-62
2023/01/25 12:13:30;;;;;;;4.03;3.63;;;;;;;;;;5073948;28;20231;-62
2023/01/25 12:16:07;;;;;;;4.22;3.83;;;;;;;;;;5073248;28;20202;-62
2023/01/25 12:18:46;;;;;;;3.95;3.60;;;;;;;;;;5072385;28;20803;-62
2023/01/25 12:21:18;;;;;;;4.63;4.13;;;;;;;;;;5073583;28;20287;-61
2023/01/25 12:23:56;;;;;;;4.20;3.55;;;;;;;;;;5072857;28;20436;-62
2023/01/25 12:26:27;;;;;;;4.05;3.63;;;;;;;;;;5073396;28;20535;-61
2023/01/25 12:28:58;;;;;;;4.22;3.83;;;;;;;;;;5074265;28;20204;-61
2023/01/25 12:34:03;;;;;;;3.85;3.47;;;;;;;;;;5247997;22;20662;-60
2023/01/25 12:36:33;;;;;;;4.20;3.80;;;;;;;;;;5014134;28;20220;-60
2023/01/25 12:39:03;;;;;;;3.85;3.55;;;;;;;;;;5012320;28;20222;-60
2023/01/25 12:41:35;;;;;;;4.43;4.03;;;;;;;;;;5012838;28;20238;-60
2023/01/25 12:44:07;;;;;;;4.13;3.70;;;;;;;;;;5012349;28;20252;-61
2023/01/25 12:46:37;;;;;;;4.15;3.72;;;;;;;;;;5013260;28;20597;-61
2023/01/25 12:49:08;;;;;;;4.32;3.92;;;;;;;;;;5013805;28;20207;-61
2023/01/25 12:51:37;;;;;;;4.13;3.72;;;;;;;;;;5012367;28;20359;-62
2023/01/25 12:54:14;;;;;;;3.85;3.55;;;;;;;;;;5012219;28;20359;-61
2023/01/25 12:56:44;;;;;;;4.10;3.70;;;;;;;;;;5011891;28;20213;-61
2023/01/25 12:59:17;;;;;;;4.13;3.72;;;;;;;;;;5012540;28;20316;-61
2023/01/25 13:01:46;;;;;;;4.13;3.60;;;;;;;;;;5011410;28;20206;-61
2023/01/25 13:04:29;;;;;;;3.70;3.40;;;;;;;;;;5011782;28;20689;-61
2023/01/25 13:06:58;;;;;;;4.25;3.80;;;;;;;;;;5011706;28;20221;-61
2023/01/25 13:09:30;;;;;;;4.20;3.80;;;;;;;;;;5012337;28;20214;-61
2023/01/25 13:11:59;;;;;;;4.00;3.60;;;;;;;;;;5012135;28;20202;-61
2023/01/25 13:14:28;;;;;;;4.38;3.95;;;;;;;;;;5011549;28;20267;-61
2023/01/25 13:16:57;;;;;;;4.18;3.80;;;;;;;;;;5011965;28;20216;-61
2023/01/25 13:19:40;;;;;;;3.75;3.40;;;;;;;;;;5012830;28;20198;-61
2023/01/25 13:22:09;;;;;;;3.75;3.45;;;;;;;;;;5012201;28;20206;-61
2023/01/25 13:24:52;;;;;;;4.25;3.85;;;;;;;;;;5011557;28;20230;-61
2023/01/25 13:27:28;;;;;;;4.32;3.92;;;;;;;;;;5010929;28;20620;-61
2023/01/25 13:29:57;;;;;;;3.63;3.33;;;;;;;;;;5012274;28;20210;-61
2023/01/25 13:32:45;;;;;;;4.13;3.72;;;;;;;;;;5012207;28;20270;-61
2023/01/25 13:35:27;;;;;;;4.47;4.07;;;;;;;;;;5011173;28;20210;-61
2023/01/25 13:37:58;;;;;;;4.03;3.63;;;;;;;;;;5011660;28;20206;-61
2023/01/25 13:40:31;;;;;;;3.80;3.47;;;;;;;;;;5012487;28;20579;-61
2023/01/25 13:43:04;;;;;;;4.00;3.60;;;;;;;;;;5011176;28;20544;-61
2023/01/25 13:45:33;;;;;;;3.95;3.55;;;;;;;;;;5013010;28;20265;-61
2023/01/25 13:48:02;;;;;;;3.80;3.40;;;;;;;;;;5012200;28;20214;-61
2023/01/25 13:50:35;;;;;;;4.10;3.38;;;;;;;;;;4999797;28;20756;-61
2023/01/25 13:53:04;;;;;;;4.03;3.63;;;;;;;;;;4993623;28;20207;-61
2023/01/25 13:55:39;;;;;;;3.72;3.42;;;;;;;;;;4994155;28;20269;-61
2023/01/25 13:58:12;;;;;;;3.65;3.35;;;;;;;;;;4992805;28;20206;-61
2023/01/25 14:00:47;;;;;;;3.95;3.55;;;;;;;;;;4991757;28;20215;-61
2023/01/25 14:03:15;;;;;;;3.90;3.50;;;;;;;;;;4993490;28;20203;-61
2023/01/25 14:05:49;;;;;;;4.25;3.85;;;;;;;;;;4991155;28;20289;-61
2023/01/25 14:08:18;;;;;;;4.07;3.67;;;;;;;;;;4992527;28;20639;-61
2023/01/25 14:10:46;;;;;;;3.90;3.50;;;;;;;;;;4992748;28;20210;-61
2023/01/25 14:13:16;;;;;;;3.70;3.40;;;;;;;;;;4993273;28;20238;-61
2023/01/25 14:15:52;;;;;;;4.32;3.92;;;;;;;;;;4992707;28;20599;-61
2023/01/25 14:18:21;;;;;;;4.30;3.90;;;;;;;;;;4991859;28;20233;-61
2023/01/25 14:20:50;;;;;;;4.20;3.80;;;;;;;;;;4992205;28;20211;-61
2023/01/25 14:23:21;;;;;;;3.92;3.63;;;;;;;;;;4992891;28;20211;-61
2023/01/25 14:25:49;;;;;;;4.00;3.70;;;;;;;;;;4995142;28;20231;-61
2023/01/25 14:28:19;;;;;;;4.10;3.70;;;;;;;;;;4996667;28;20203;-61
2023/01/25 14:30:50;;;;;;;3.65;3.35;;;;;;;;;;4995502;28;20203;-61
2023/01/25 14:33:20;;;;;;;4.03;3.63;;;;;;;;;;4994624;28;20247;-61
2023/01/25 14:35:48;;;;;;;4.22;3.83;;;;;;;;;;4995527;28;20301;-61
2023/01/25 14:38:20;;;;;;;4.03;3.63;;;;;;;;;;4994994;28;20215;-61
2023/01/25 14:40:48;;;;;;;4.20;3.80;;;;;;;;;;4994627;28;20215;-61
2023/01/25 14:43:19;;;;;;;3.80;3.50;;;;;;;;;;4995867;28;20219;-61
2023/01/25 14:45:47;;;;;;;3.85;3.50;;;;;;;;;;4997741;28;20535;-61
2023/01/25 14:48:33;;;;;;;4.25;3.83;;;;;;;;;;4998218;28;20211;-61
2023/01/25 14:51:04;;;;;;;3.92;3.63;;;;;;;;;;4994889;28;20485;-61
2023/01/25 14:53:31;;;;;;;3.88;3.58;;;;;;;;;;4994578;28;20306;-61
2023/01/25 14:55:59;;;;;;;3.97;3.50;;;;;;;;;;4994767;28;20203;-61
2023/01/25 14:58:30;;;;;;;3.90;3.58;;;;;;;;;;4996001;28;20207;-61
2023/01/25 15:00:59;;;;;;;4.40;3.65;;;;;;;;;;4995469;28;20207;-61
2023/01/25 15:03:27;;;;;;;4.38;3.97;;;;;;;;;;4995233;28;20214;-61